Poesville, Texas
Current Conditions -  °F | °C
As of 6:15 AM on Sunday 23 Nov 2014 (Local Time) from KCPT Reporting Station
Clear Clear  
Wind Chill: 11°   Ceiling: Unl
Heat Index: 11°   Visibility: 10mi
Dew Point: 11°   Wind: 7mph
Humidity: 100%   Direction: 190°S
Pressure: 29.62"   Gusts: NA
Location:  32.0481°N, 97.6449°W
Report Text: KCPT 231215Z AUTO 19006KT 10SM CLR 11/11 A2962 RMK AO2
Loading
Personal Weather Stations






























Interactive Weather Map New forecast layout! Learn more

10-Day Weather Forecast

Advertisements
Track Severe Weather on mobile